Time;durP1;ratioP1;P1;durP2;ratioP2;P2;SDS_P1;SDS_P2;PMS_P1;PMS_P2;Temp;Humidity;BMP_temperature;BMP_pressure;BME280_temperature;BME280_humidity;BME280_pressure;Samples;Min_cycle;Max_cycle;Signal;HPM_P1;HPM_P2
2023/05/10 00:00:54;;;;;;;5.43;4.55;;;;;;;11.59;89.59;100614.84;4841863;29;20415;-86
2023/05/10 00:03:20;;;;;;;6.25;4.72;;;;;;;11.61;89.68;100617.31;4834293;29;20030;-86
2023/05/10 00:05:45;;;;;;;6.13;4.70;;;;;;;11.55;89.63;100619.00;4838199;29;20131;-86
2023/05/10 00:08:10;;;;;;;6.00;4.45;;;;;;;11.56;89.80;100612.56;4842962;29;20052;-85
2023/05/10 00:10:37;;;;;;;7.03;4.53;;;;;;;11.51;89.70;100618.59;4828288;29;20049;-86
2023/05/10 00:13:02;;;;;;;5.72;4.57;;;;;;;11.52;89.65;100619.41;4838421;29;20086;-85
2023/05/10 00:15:28;;;;;;;6.78;4.95;;;;;;;11.52;89.67;100620.25;4841499;29;20030;-85
2023/05/10 00:17:53;;;;;;;6.95;5.00;;;;;;;11.48;89.59;100618.16;4841555;29;20169;-85
2023/05/10 00:20:18;;;;;;;6.10;4.63;;;;;;;11.45;89.85;100615.91;4838091;29;20041;-84
2023/05/10 00:22:44;;;;;;;5.43;4.35;;;;;;;11.47;89.87;100617.34;4840526;29;20053;-85
2023/05/10 00:25:10;;;;;;;6.60;4.65;;;;;;;11.52;89.73;100611.31;4826999;29;20027;-85
2023/05/10 00:27:35;;;;;;;6.20;5.00;;;;;;;11.50;90.04;100602.59;4826789;29;20038;-85
2023/05/10 00:30:01;;;;;;;7.38;5.03;;;;;;;11.51;90.18;100615.06;4838307;29;20034;-85
2023/05/10 00:32:26;;;;;;;6.78;5.38;;;;;;;11.52;90.25;100608.63;4855889;29;20405;-86
2023/05/10 00:34:51;;;;;;;7.20;4.85;;;;;;;11.54;90.56;100614.63;4850627;29;20452;-86
2023/05/10 00:37:17;;;;;;;7.65;5.65;;;;;;;11.52;90.15;100612.16;4845373;29;20034;-86
2023/05/10 00:39:42;;;;;;;7.20;5.78;;;;;;;11.53;90.13;100610.28;4824777;29;20149;-86
2023/05/10 00:42:08;;;;;;;7.78;5.93;;;;;;;11.52;90.35;100606.78;4837158;29;20029;-86
2023/05/10 00:44:33;;;;;;;7.57;6.00;;;;;;;11.52;90.50;100608.63;4832395;29;20075;-87
2023/05/10 00:46:58;;;;;;;7.95;5.95;;;;;;;11.53;90.61;100608.44;4825121;29;20034;-86
2023/05/10 00:49:24;;;;;;;10.32;6.28;;;;;;;11.49;90.73;100609.88;4836406;29;20113;-86
2023/05/10 00:51:49;;;;;;;9.65;7.00;;;;;;;11.53;90.84;100605.72;4826544;29;20042;-86
2023/05/10 00:54:15;;;;;;;11.15;7.15;;;;;;;11.50;90.73;100610.69;4836348;29;20026;-86
2023/05/10 00:56:40;;;;;;;11.57;7.43;;;;;;;11.48;90.58;100601.97;4808173;29;20549;-87
2023/05/10 00:59:06;;;;;;;11.00;6.82;;;;;;;11.48;91.01;100604.69;4840547;29;20073;-87
2023/05/10 01:01:32;;;;;;;10.02;7.25;;;;;;;11.49;91.13;100603.66;4840823;29;20049;-87
2023/05/10 01:03:57;;;;;;;11.68;7.90;;;;;;;11.49;90.72;100614.44;4839509;29;20038;-86
2023/05/10 01:06:22;;;;;;;10.82;7.82;;;;;;;11.49;90.97;100609.88;4823813;29;20133;-87
2023/05/10 01:08:48;;;;;;;11.23;7.95;;;;;;;11.52;90.79;100619.41;4810698;29;20509;-87
2023/05/10 01:11:13;;;;;;;11.60;7.47;;;;;;;11.45;90.99;100605.94;4826893;29;20030;-87
2023/05/10 01:13:39;;;;;;;11.25;7.95;;;;;;;11.40;90.78;100605.72;4833818;29;20038;-87
2023/05/10 01:16:06;;;;;;;9.50;6.63;;;;;;;11.50;90.88;100616.09;4825736;29;20038;-86
2023/05/10 01:18:38;;;;;;;10.43;7.20;;;;;;;11.46;90.83;100609.47;4826514;29;20449;-86
2023/05/10 01:21:35;;;;;;;10.65;7.57;;;;;;;11.36;91.00;100616.09;4824650;29;20109;-87
2023/05/10 01:24:12;;;;;;;10.40;6.93;;;;;;;11.36;90.64;100612.59;4837046;29;20483;-86
2023/05/10 01:27:09;;;;;;;9.05;7.03;;;;;;;11.40;90.82;100615.69;4811071;29;20038;-86
2023/05/10 01:29:52;;;;;;;10.27;6.88;;;;;;;11.43;90.74;100615.28;4833089;29;20033;-87
2023/05/10 01:32:22;;;;;;;9.95;7.00;;;;;;;11.43;90.45;100612.59;4823263;29;20031;-86
2023/05/10 01:34:56;;;;;;;11.48;7.25;;;;;;;11.45;90.38;100613.22;4821561;29;20390;-84
2023/05/10 01:37:25;;;;;;;10.65;7.05;;;;;;;11.44;90.38;100616.94;4815841;29;20121;-85
2023/05/10 01:39:55;;;;;;;9.70;6.78;;;;;;;11.42;90.39;100610.94;4840986;29;20034;-85
2023/05/10 01:42:21;;;;;;;11.90;7.40;;;;;;;11.40;90.69;100608.41;4825499;29;20086;-87
2023/05/10 01:45:35;;;;;;;10.27;7.18;;;;;;;11.50;90.17;100616.94;4804085;29;20403;-84
2023/05/10 01:48:09;;;;;;;9.55;6.88;;;;;;;11.50;90.28;100610.69;4822357;29;20049;-87
2023/05/10 01:50:36;;;;;;;9.40;7.03;;;;;;;11.41;89.97;100606.56;4808046;29;20035;-85
2023/05/10 01:53:02;;;;;;;11.63;8.00;;;;;;;11.36;90.48;100608.00;4821308;29;20030;-85
2023/05/10 01:55:32;;;;;;;11.35;7.53;;;;;;;11.35;90.43;100613.63;4835852;29;20065;-85
2023/05/10 01:58:09;;;;;;;14.35;7.82;;;;;;;11.44;90.59;100611.56;4838291;29;20025;-84
2023/05/10 02:00:35;;;;;;;11.50;7.40;;;;;;;11.66;90.08;100607.56;4840291;29;20167;-85
2023/05/10 02:03:03;;;;;;;8.52;6.65;;;;;;;11.78;89.72;100606.94;4824515;29;20022;-85
2023/05/10 02:05:29;;;;;;;10.70;7.20;;;;;;;11.80;88.99;100608.38;4836938;29;20068;-85
2023/05/10 02:07:55;;;;;;;13.30;8.13;;;;;;;11.62;89.47;100606.34;4824381;29;20393;-85
2023/05/10 02:10:20;;;;;;;11.02;7.25;;;;;;;11.72;89.53;100610.47;4842650;29;20058;-85
2023/05/10 02:12:47;;;;;;;11.35;7.63;;;;;;;11.64;89.76;100612.34;4820523;29;20040;-87
2023/05/10 02:15:14;;;;;;;13.68;8.90;;;;;;;11.57;89.70;100614.22;4821450;29;20041;-85
2023/05/10 02:17:40;;;;;;;13.45;8.40;;;;;;;11.72;89.90;100618.56;4819721;29;20053;-86
2023/05/10 02:20:06;;;;;;;12.43;8.68;;;;;;;11.71;89.77;100625.81;4824451;29;20041;-85
2023/05/10 02:22:31;;;;;;;15.82;9.27;;;;;;;11.62;89.38;100632.47;4836210;29;20087;-85
2023/05/10 02:24:57;;;;;;;14.25;8.82;;;;;;;11.66;89.90;100629.13;4824463;29;20042;-85
2023/05/10 02:27:23;;;;;;;16.13;9.13;;;;;;;11.74;89.67;100630.78;4826007;29;20086;-85
2023/05/10 02:29:48;;;;;;;19.20;10.30;;;;;;;11.68;89.26;100627.06;4840800;29;20497;-86
2023/05/10 02:32:14;;;;;;;18.02;10.05;;;;;;;11.79;89.04;100630.16;4837577;29;20058;-86
2023/05/10 02:34:39;;;;;;;22.73;11.00;;;;;;;11.72;89.44;100629.34;4836707;29;20030;-85
2023/05/10 02:37:05;;;;;;;23.13;11.27;;;;;;;11.62;89.85;100633.31;4824596;29;20042;-85
2023/05/10 02:39:31;;;;;;;23.08;11.98;;;;;;;11.62;89.95;100627.06;4821150;29;20167;-85
2023/05/10 02:41:56;;;;;;;29.08;13.38;;;;;;;11.53;90.10;100621.91;4827500;29;20038;-84
2023/05/10 02:44:22;;;;;;;32.95;13.68;;;;;;;11.49;90.76;100630.59;4823025;29;20030;-85
2023/05/10 02:46:47;;;;;;;35.70;14.18;;;;;;;11.46;91.22;100626.47;4840174;29;20041;-85
2023/05/10 02:49:13;;;;;;;38.25;14.63;;;;;;;11.49;91.26;100630.59;4832969;29;20440;-85
2023/05/10 02:51:42;;;;;;;30.50;13.88;;;;;;;11.68;90.67;100620.84;4842985;29;20030;-85
2023/05/10 02:54:10;;;;;;;28.80;13.57;;;;;;;11.78;90.79;100628.50;4822853;29;20042;-85
2023/05/10 02:56:36;;;;;;;30.92;13.48;;;;;;;11.91;90.20;100628.47;4824014;29;20041;-86
2023/05/10 02:59:01;;;;;;;35.58;15.50;;;;;;;11.85;90.07;100623.91;4843316;29;20053;-85
2023/05/10 03:01:27;;;;;;;33.40;14.15;;;;;;;11.86;89.74;100630.16;4838269;29;20022;-86
2023/05/10 03:03:52;;;;;;;37.75;15.80;;;;;;;11.68;90.28;100629.75;4827623;29;20045;-85
2023/05/10 03:06:17;;;;;;;33.15;14.60;;;;;;;11.70;90.35;100634.09;4842640;29;20061;-85
2023/05/10 03:08:43;;;;;;;40.55;15.77;;;;;;;11.68;90.56;100623.53;4837593;29;20819;-85
2023/05/10 03:11:27;;;;;;;45.00;17.13;;;;;;;11.62;90.86;100627.91;4817121;29;20174;-86
2023/05/10 03:14:05;;;;;;;42.30;15.93;;;;;;;11.68;91.16;100637.03;4828312;29;20042;-86
2023/05/10 03:16:38;;;;;;;48.78;18.73;;;;;;;11.66;91.00;100629.13;4819667;29;20038;-86
2023/05/10 03:19:12;;;;;;;50.55;18.42;;;;;;;11.65;90.98;100623.97;4827197;29;20074;-86
2023/05/10 03:21:38;;;;;;;51.22;18.58;;;;;;;11.70;91.22;100628.72;4828691;29;20060;-86
2023/05/10 03:24:06;;;;;;;56.95;20.10;;;;;;;11.72;90.99;100629.34;4823894;29;20042;-86
2023/05/10 03:26:32;;;;;;;50.55;20.08;;;;;;;11.82;91.22;100627.88;4838682;29;20467;-85
2023/05/10 03:28:58;;;;;;;55.65;20.85;;;;;;;11.81;91.23;100630.78;4827594;29;20036;-85
2023/05/10 03:31:24;;;;;;;55.75;21.10;;;;;;;11.79;90.93;100646.34;4819551;29;20017;-86
2023/05/10 03:33:49;;;;;;;53.92;21.10;;;;;;;11.84;90.87;100643.81;4845802;29;20136;-86
2023/05/10 03:36:15;;;;;;;51.55;20.17;;;;;;;12.01;90.64;100641.56;4854992;29;20038;-86
2023/05/10 03:38:40;;;;;;;53.38;21.00;;;;;;;11.99;90.16;100643.63;4846515;29;20491;-85
2023/05/10 03:41:05;;;;;;;54.70;22.42;;;;;;;12.08;89.76;100655.03;4844722;29;20042;-86
2023/05/10 03:43:31;;;;;;;55.45;21.58;;;;;;;11.93;90.01;100647.97;4843937;29;20045;-86
2023/05/10 03:45:56;;;;;;;57.67;22.92;;;;;;;11.94;90.16;100651.50;4840590;29;20045;-86
2023/05/10 03:48:22;;;;;;;53.40;21.23;;;;;;;12.01;90.45;100646.09;4837843;29;20030;-87
2023/05/10 03:50:49;;;;;;;53.47;22.02;;;;;;;12.00;89.77;100649.88;4837242;29;20074;-86
2023/05/10 03:53:14;;;;;;;59.13;23.63;;;;;;;12.04;89.87;100657.31;4843254;29;20026;-85
2023/05/10 03:55:39;;;;;;;62.17;23.30;;;;;;;12.03;90.13;100663.75;4838016;29;20045;-86
2023/05/10 03:58:05;;;;;;;56.30;22.75;;;;;;;12.05;90.13;100661.69;4839898;29;20030;-86
2023/05/10 04:00:31;;;;;;;56.17;23.30;;;;;;;12.02;89.72;100656.69;4839301;29;20033;-86
2023/05/10 04:02:56;;;;;;;54.88;23.15;;;;;;;12.13;89.41;100669.53;4841646;29;20041;-86
2023/05/10 04:05:22;;;;;;;59.92;23.67;;;;;;;12.02;89.84;100667.50;4836948;29;20034;-87
2023/05/10 04:07:49;;;;;;;58.58;23.17;;;;;;;12.01;89.51;100660.44;4839906;29;20052;-86
2023/05/10 04:10:15;;;;;;;62.65;23.65;;;;;;;12.01;90.19;100662.28;4839868;29;20467;-86
2023/05/10 04:12:44;;;;;;;61.03;24.88;;;;;;;11.97;90.11;100669.94;4841529;29;20478;-86
2023/05/10 04:15:10;;;;;;;63.72;23.85;;;;;;;11.84;90.45;100665.41;4841539;29;20059;-85
2023/05/10 04:17:35;;;;;;;61.42;24.27;;;;;;;11.94;90.62;100659.56;4836540;29;20074;-86
2023/05/10 04:20:01;;;;;;;60.70;23.75;;;;;;;12.03;90.41;100668.31;4828927;29;20026;-85
2023/05/10 04:22:32;;;;;;;56.10;22.27;;;;;;;12.04;89.75;100667.28;4815453;29;20045;-85
2023/05/10 04:24:58;;;;;;;54.65;23.10;;;;;;;12.13;89.56;100663.31;4833778;29;20053;-83
2023/05/10 04:27:23;;;;;;;55.42;23.38;;;;;;;12.14;89.55;100664.97;4842479;29;20022;-86
2023/05/10 04:29:48;;;;;;;55.33;24.13;;;;;;;12.04;89.68;100662.72;4842712;29;20443;-84
2023/05/10 04:32:16;;;;;;;58.95;23.63;;;;;;;11.92;89.94;100661.66;4841279;29;20044;-86
2023/05/10 04:34:41;;;;;;;65.32;25.08;;;;;;;12.05;89.60;100668.94;4841849;29;20033;-85
2023/05/10 04:37:07;;;;;;;63.25;25.48;;;;;;;11.96;89.86;100671.84;4824662;29;20074;-86
2023/05/10 04:39:32;;;;;;;59.58;24.23;;;;;;;12.00;90.14;100668.75;4831534;29;20027;-86
2023/05/10 04:41:59;;;;;;;55.40;24.23;;;;;;;12.17;90.14;100680.75;4837128;29;20590;-86
2023/05/10 04:44:25;;;;;;;59.15;24.50;;;;;;;12.11;89.28;100681.59;4841364;29;20033;-86
2023/05/10 04:46:51;;;;;;;53.22;24.10;;;;;;;12.11;89.26;100685.09;4841268;29;20026;-87
2023/05/10 04:49:17;;;;;;;61.70;26.40;;;;;;;12.08;89.73;100684.69;4841508;29;20169;-86
2023/05/10 04:51:43;;;;;;;57.28;23.63;;;;;;;12.08;89.85;100684.69;4840501;29;20090;-84
2023/05/10 04:54:08;;;;;;;56.38;25.67;;;;;;;12.13;89.61;100684.91;4827119;29;20432;-86
2023/05/10 04:56:33;;;;;;;62.55;26.60;;;;;;;12.06;89.63;100693.03;4831279;29;20054;-86
2023/05/10 04:58:59;;;;;;;67.13;26.98;;;;;;;11.99;89.32;100700.28;4842307;29;20028;-86
2023/05/10 05:01:24;;;;;;;62.85;27.02;;;;;;;12.00;89.53;100701.94;4825561;29;20054;-86
2023/05/10 05:03:50;;;;;;;55.20;24.85;;;;;;;12.05;89.50;100698.59;4841207;29;20038;-87
2023/05/10 05:06:15;;;;;;;57.53;25.27;;;;;;;12.10;89.48;100710.41;4835384;29;20066;-87
2023/05/10 05:08:41;;;;;;;54.67;24.83;;;;;;;12.11;88.86;100705.88;4833460;29;20094;-87
2023/05/10 05:11:06;;;;;;;52.03;24.55;;;;;;;12.21;88.26;100713.53;4830421;29;20037;-87
2023/05/10 05:13:31;;;;;;;63.45;24.95;;;;;;;12.09;88.05;100710.66;4838200;29;20030;-86
2023/05/10 05:15:57;;;;;;;57.35;25.02;;;;;;;12.04;87.96;100715.84;4842196;29;20064;-87
2023/05/10 05:18:22;;;;;;;49.53;23.30;;;;;;;12.12;88.03;100715.63;4828079;29;20377;-87
2023/05/10 05:20:48;;;;;;;54.63;23.40;;;;;;;12.03;87.71;100716.88;4826184;29;20049;-87
2023/05/10 05:23:13;;;;;;;52.20;22.85;;;;;;;12.27;87.11;100724.31;4840426;29;20041;-87
2023/05/10 05:25:38;;;;;;;54.13;23.20;;;;;;;12.15;87.18;100715.22;4835344;29;20038;-86
2023/05/10 05:28:04;;;;;;;52.85;22.63;;;;;;;12.13;86.97;100718.09;4842560;29;20390;-87
2023/05/10 05:30:29;;;;;;;59.17;23.83;;;;;;;12.06;87.08;100724.56;4842524;29;20053;-87
2023/05/10 05:32:54;;;;;;;51.60;22.45;;;;;;;12.09;87.44;100726.84;4842087;29;20026;-86
2023/05/10 05:35:20;;;;;;;60.38;24.70;;;;;;;12.12;87.36;100732.63;4841774;29;20435;-86
2023/05/10 05:37:46;;;;;;;50.97;23.92;;;;;;;12.38;86.84;100735.47;4840779;29;20034;-86
2023/05/10 05:40:14;;;;;;;51.13;22.67;;;;;;;12.50;85.66;100728.41;4842319;29;20034;-87
2023/05/10 05:42:39;;;;;;;46.90;23.08;;;;;;;12.84;84.55;100717.44;4836240;29;20037;-87
2023/05/10 05:45:06;;;;;;;46.92;22.27;;;;;;;12.73;84.79;100718.94;4824026;29;20026;-87
2023/05/10 05:47:31;;;;;;;51.50;23.15;;;;;;;12.96;83.67;100723.84;4824384;29;20041;-87
2023/05/10 05:49:57;;;;;;;54.42;25.42;;;;;;;12.74;84.11;100728.72;4823770;29;20026;-87
2023/05/10 05:52:22;;;;;;;47.83;22.70;;;;;;;12.79;85.20;100731.59;4827006;29;20033;-87
2023/05/10 05:54:47;;;;;;;52.00;23.27;;;;;;;13.00;84.12;100729.63;4838412;29;20022;-87
2023/05/10 05:57:13;;;;;;;54.78;24.33;;;;;;;12.94;83.76;100722.38;4827585;29;20038;-87
2023/05/10 05:59:43;;;;;;;50.05;23.70;;;;;;;12.87;84.15;100722.44;4837953;29;20042;-88
2023/05/10 06:02:09;;;;;;;48.85;23.10;;;;;;;13.18;83.89;100724.34;4840023;29;20111;-88
2023/05/10 06:04:34;;;;;;;55.85;24.73;;;;;;;12.99;83.85;100723.38;4827722;29;20027;-87
2023/05/10 06:06:59;;;;;;;47.55;21.83;;;;;;;12.91;83.61;100723.66;4838126;29;20050;-87
2023/05/10 06:09:25;;;;;;;49.42;22.58;;;;;;;12.85;83.64;100728.06;4841312;29;20459;-87
2023/05/10 06:11:50;;;;;;;48.00;22.02;;;;;;;13.01;83.52;100721.31;4838416;29;20036;-87
2023/05/10 06:14:16;;;;;;;47.60;23.25;;;;;;;12.93;83.73;100731.53;4842215;29;20033;-87
2023/05/10 06:16:41;;;;;;;43.72;21.17;;;;;;;12.77;84.03;100736.41;4837643;29;20400;-87
2023/05/10 06:19:06;;;;;;;49.45;21.70;;;;;;;12.76;84.60;100736.63;4832409;29;20078;-88
2023/05/10 06:21:34;;;;;;;49.72;23.10;;;;;;;12.66;84.27;100739.78;4829743;29;20030;-87
2023/05/10 06:24:00;;;;;;;44.90;20.17;;;;;;;12.84;83.70;100737.19;4842765;29;20037;-80
2023/05/10 06:26:25;;;;;;;43.75;19.75;;;;;;;13.00;82.88;100733.16;4835068;29;20034;-79
2023/05/10 06:28:50;;;;;;;46.03;21.20;;;;;;;13.03;83.01;100738.13;4845304;29;20101;-78
2023/05/10 06:31:16;;;;;;;45.50;22.27;;;;;;;12.95;83.63;100745.66;4840313;29;20031;-77
2023/05/10 06:33:41;;;;;;;47.08;21.48;;;;;;;12.91;83.95;100744.44;4844888;29;20090;-87
2023/05/10 06:36:06;;;;;;;44.78;21.60;;;;;;;12.93;83.91;100753.16;4871259;29;20035;-86
2023/05/10 06:38:32;;;;;;;48.15;21.63;;;;;;;12.89;84.48;100744.66;4878700;29;20029;-87
2023/05/10 06:40:57;;;;;;;48.30;21.67;;;;;;;12.87;84.20;100755.69;4858685;29;20018;-86
2023/05/10 06:43:24;;;;;;;46.25;21.52;;;;;;;12.93;84.84;100758.56;4847600;29;20366;-85
2023/05/10 06:45:49;;;;;;;46.72;21.45;;;;;;;12.83;84.08;100759.00;4843013;29;20034;-87
2023/05/10 06:48:14;;;;;;;49.90;23.33;;;;;;;12.86;84.08;100759.44;4829282;29;20031;-88
2023/05/10 06:50:40;;;;;;;44.35;20.92;;;;;;;12.94;84.13;100762.91;4832358;29;20048;-85
2023/05/10 06:53:05;;;;;;;42.58;20.60;;;;;;;12.87;83.65;100765.66;4841894;29;20033;-87
2023/05/10 06:55:31;;;;;;;43.53;21.20;;;;;;;12.84;84.03;100756.13;4837288;29;20035;-87
2023/05/10 06:57:56;;;;;;;47.33;21.17;;;;;;;12.71;84.87;100764.25;4826054;29;20390;-84
2023/05/10 07:00:22;;;;;;;49.05;21.80;;;;;;;12.67;85.60;100761.16;4826851;29;20397;-85
2023/05/10 07:02:47;;;;;;;51.50;21.92;;;;;;;12.73;85.26;100762.16;4825052;29;20026;-85
2023/05/10 07:05:13;;;;;;;44.70;21.20;;;;;;;12.79;85.43;100765.91;4826278;29;20079;-85
2023/05/10 07:07:38;;;;;;;44.80;21.05;;;;;;;12.87;84.58;100780.00;4839827;29;20053;-86
2023/05/10 07:10:04;;;;;;;41.97;19.60;;;;;;;13.15;84.37;100765.31;4843167;29;20136;-86
2023/05/10 07:12:29;;;;;;;46.72;21.17;;;;;;;13.15;83.51;100768.00;4840797;29;20026;-86
2023/05/10 07:14:55;;;;;;;42.95;20.83;;;;;;;13.30;83.33;100772.28;4846298;29;20029;-85
2023/05/10 07:17:20;;;;;;;46.65;20.40;;;;;;;13.37;82.76;100783.91;4861484;29;20480;-85
2023/05/10 07:19:46;;;;;;;42.78;21.00;;;;;;;13.32;83.01;100789.13;4853255;29;20034;-84
2023/05/10 07:22:11;;;;;;;45.60;21.35;;;;;;;13.31;83.42;100790.19;4843271;29;20443;-85
2023/05/10 07:24:36;;;;;;;39.88;19.02;;;;;;;13.49;82.49;100789.50;4845515;29;20045;-85
2023/05/10 07:27:02;;;;;;;45.60;22.15;;;;;;;13.34;82.31;100789.75;4856219;29;20029;-85
2023/05/10 07:29:28;;;;;;;42.08;20.30;;;;;;;13.71;81.91;100781.00;4843568;29;20052;-85
2023/05/10 07:31:53;;;;;;;46.83;21.58;;;;;;;13.62;81.35;100786.69;4846644;29;20736;-85
2023/05/10 07:34:18;;;;;;;48.88;21.50;;;;;;;13.47;82.97;100794.28;4843800;29;20030;-84
2023/05/10 07:36:44;;;;;;;46.67;21.88;;;;;;;13.56;82.44;100794.84;4837707;29;20063;-86
2023/05/10 07:39:09;;;;;;;43.30;21.88;;;;;;;13.25;82.68;100794.56;4831259;29;20045;-85
2023/05/10 07:41:35;;;;;;;44.50;22.58;;;;;;;13.19;83.46;100796.28;4837004;29;20068;-86
2023/05/10 07:44:00;;;;;;;42.25;21.58;;;;;;;13.35;83.43;100797.63;4843539;29;20026;-87
2023/05/10 07:46:26;;;;;;;42.78;22.27;;;;;;;13.51;83.47;100802.78;4845229;29;20034;-85
2023/05/10 07:48:51;;;;;;;39.92;21.13;;;;;;;13.54;82.03;100802.34;4843890;29;20026;-86
2023/05/10 07:51:17;;;;;;;51.08;23.08;;;;;;;13.37;82.85;100807.41;4843840;29;20030;-87
2023/05/10 07:53:42;;;;;;;42.10;21.52;;;;;;;13.62;82.32;100802.91;4846229;29;20475;-87
2023/05/10 07:56:29;;;;;;;42.72;22.67;;;;;;;13.67;82.32;100810.38;4843278;29;20038;-86
2023/05/10 07:58:54;;;;;;;41.20;22.58;;;;;;;13.58;82.78;100814.41;4840830;29;20531;-86
2023/05/10 08:01:20;;;;;;;40.25;21.42;;;;;;;13.75;81.02;100812.81;4842756;29;20026;-85
2023/05/10 08:03:45;;;;;;;39.88;22.55;;;;;;;13.81;80.91;100816.53;4827460;29;20049;-87
2023/05/10 08:06:11;;;;;;;40.00;23.23;;;;;;;13.67;81.19;100813.06;4824909;29;20042;-87
2023/05/10 08:08:36;;;;;;;39.40;22.50;;;;;;;13.67;80.92;100809.56;4832736;29;20030;-87
2023/05/10 08:11:01;;;;;;;43.97;23.25;;;;;;;14.02;80.63;100809.09;4841275;29;20038;-86
2023/05/10 08:13:27;;;;;;;42.42;23.35;;;;;;;14.06;80.36;100816.53;4834188;29;20399;-87
2023/05/10 08:15:53;;;;;;;40.88;22.77;;;;;;;13.97;80.94;100825.97;4838073;29;20390;-88
2023/05/10 08:18:18;;;;;;;38.65;21.50;;;;;;;13.84;81.86;100826.06;4846813;29;20038;-88
2023/05/10 08:20:44;;;;;;;40.65;23.02;;;;;;;13.71;81.72;100819.72;4847517;29;20064;-88
2023/05/10 08:23:09;;;;;;;38.22;21.77;;;;;;;13.70;81.29;100822.63;4850935;29;20028;-86
2023/05/10 08:25:35;;;;;;;40.30;21.80;;;;;;;13.52;83.09;100826.06;4844529;29;20048;-86
2023/05/10 08:28:00;;;;;;;37.25;20.77;;;;;;;13.43;83.65;100829.03;4842864;29;20037;-86
2023/05/10 08:30:25;;;;;;;33.22;19.35;;;;;;;13.40;82.75;100834.88;4839634;29;20037;-87
2023/05/10 08:32:51;;;;;;;33.65;19.02;;;;;;;13.35;82.79;100831.97;4832347;29;20040;-86
2023/05/10 08:35:16;;;;;;;36.83;19.75;;;;;;;13.24;83.58;100830.75;4842295;29;20030;-87
2023/05/10 08:37:41;;;;;;;39.03;20.25;;;;;;;13.13;83.28;100834.97;4843474;29;20041;-86
2023/05/10 08:40:07;;;;;;;36.33;18.88;;;;;;;13.17;83.86;100841.63;4841730;29;20387;-86
2023/05/10 08:42:35;;;;;;;38.22;20.50;;;;;;;13.15;83.65;100843.69;4825715;29;20022;-86
2023/05/10 08:45:00;;;;;;;40.47;20.73;;;;;;;13.21;84.16;100850.13;4822798;29;20061;-86
2023/05/10 08:47:26;;;;;;;40.30;19.98;;;;;;;13.26;83.95;100849.47;4823652;29;20030;-86
2023/05/10 08:49:51;;;;;;;36.15;20.27;;;;;;;13.29;84.05;100847.19;4808417;29;20059;-86
2023/05/10 08:52:17;;;;;;;35.88;19.45;;;;;;;13.23;83.86;100860.72;4793811;29;20040;-86
2023/05/10 08:54:42;;;;;;;36.40;19.50;;;;;;;13.31;84.25;100853.22;4824135;29;20026;-86
2023/05/10 08:57:08;;;;;;;34.58;18.45;;;;;;;13.41;84.16;100863.59;4808196;29;20026;-86
2023/05/10 08:59:33;;;;;;;34.83;18.80;;;;;;;13.71;83.06;100857.59;4825405;29;20018;-86
2023/05/10 09:01:59;;;;;;;36.88;20.00;;;;;;;13.60;82.91;100869.09;4822751;29;20030;-87
2023/05/10 09:04:25;;;;;;;40.88;20.52;;;;;;;13.76;82.47;100865.03;4838344;29;20040;-87
2023/05/10 09:06:50;;;;;;;35.50;19.70;;;;;;;13.77;82.85;100874.81;4833136;29;20122;-87
2023/05/10 09:09:16;;;;;;;36.35;19.95;;;;;;;13.83;82.44;100875.81;4824125;29;20030;-87
2023/05/10 09:11:42;;;;;;;31.75;18.08;;;;;;;13.72;81.47;100880.91;4823222;29;20040;-87
2023/05/10 09:14:07;;;;;;;34.08;18.67;;;;;;;13.66;82.64;100887.16;4831112;29;20037;-86
2023/05/10 09:16:32;;;;;;;35.75;20.40;;;;;;;13.43;83.04;100891.22;4825674;29;20128;-84
2023/05/10 09:18:58;;;;;;;33.97;18.77;;;;;;;13.62;82.94;100891.34;4841174;29;20018;-85
2023/05/10 09:21:23;;;;;;;30.95;17.77;;;;;;;13.74;81.85;100894.19;4838999;29;20057;-85
2023/05/10 09:23:49;;;;;;;29.70;17.70;;;;;;;13.98;81.82;100889.88;4851493;29;20391;-85
2023/05/10 09:26:15;;;;;;;32.75;17.33;;;;;;;14.24;79.90;100898.84;4846258;29;20046;-85
2023/05/10 09:28:50;;;;;;;28.20;17.13;;;;;;;14.12;79.85;100895.22;4839228;29;20030;-85
2023/05/10 09:31:16;;;;;;;24.95;15.25;;;;;;;13.98;80.45;100906.13;4842306;29;20539;-86
2023/05/10 09:33:48;;;;;;;23.15;13.95;;;;;;;14.02;80.66;100901.94;4842092;29;20030;-85
2023/05/10 09:36:14;;;;;;;24.27;15.00;;;;;;;13.95;80.94;100910.09;4835357;29;20554;-85
2023/05/10 09:38:49;;;;;;;24.80;15.13;;;;;;;13.97;81.55;100904.44;4855252;29;20037;-86
2023/05/10 09:41:33;;;;;;;28.48;16.02;;;;;;;14.39;81.13;100907.47;4859046;29;20030;-86
2023/05/10 09:43:58;;;;;;;31.52;16.48;;;;;;;14.88;76.63;100906.84;4833284;29;20079;-86
2023/05/10 09:46:24;;;;;;;28.95;16.80;;;;;;;14.87;78.17;100910.59;4845057;29;20443;-86
2023/05/10 09:48:49;;;;;;;25.85;16.23;;;;;;;14.79;78.13;100905.50;4842478;29;20029;-87
2023/05/10 09:51:24;;;;;;;31.00;17.80;;;;;;;15.12;76.97;100910.53;4841870;29;20030;-85
2023/05/10 09:54:11;;;;;;;28.15;16.77;;;;;;;14.70;77.24;100904.97;4826826;29;20053;-85
2023/05/10 09:56:38;;;;;;;29.02;16.52;;;;;;;14.86;78.08;100908.94;4840854;29;20071;-85
2023/05/10 09:59:04;;;;;;;30.17;17.42;;;;;;;15.34;75.89;100906.56;4834348;29;20069;-84
2023/05/10 10:01:30;;;;;;;27.70;16.38;;;;;;;15.54;75.57;100911.72;4834553;29;20456;-85
2023/05/10 10:03:57;;;;;;;30.45;18.13;;;;;;;15.93;73.96;100917.72;4844399;29;20029;-85
2023/05/10 10:06:23;;;;;;;29.42;16.42;;;;;;;16.17;74.28;100913.16;4845152;29;20098;-84
2023/05/10 10:08:48;;;;;;;27.15;16.85;;;;;;;16.60;71.40;100915.78;4839948;29;20375;-84
2023/05/10 10:11:13;;;;;;;22.25;15.60;;;;;;;16.90;70.46;100915.69;4828336;29;20095;-84
2023/05/10 10:13:39;;;;;;;26.05;15.90;;;;;;;17.87;68.40;100909.75;4828477;29;20051;-85
2023/05/10 10:16:05;;;;;;;23.50;15.75;;;;;;;18.63;64.06;100912.13;4844303;29;20037;-86
2023/05/10 10:18:30;;;;;;;25.88;16.55;;;;;;;18.72;63.56;100914.41;4807075;29;20116;-84
2023/05/10 10:20:59;;;;;;;27.05;18.70;;;;;;;17.87;63.92;100920.63;4844959;29;20033;-85
2023/05/10 10:23:25;;;;;;;25.73;16.77;;;;;;;17.28;67.51;100919.78;4813295;29;20027;-86
2023/05/10 10:25:51;;;;;;;27.02;17.17;;;;;;;17.47;67.67;100918.81;4810075;29;20037;-86
2023/05/10 10:28:21;;;;;;;26.38;16.60;;;;;;;17.65;64.35;100917.78;4824426;29;20030;-85
2023/05/10 10:30:48;;;;;;;27.90;17.90;;;;;;;17.45;66.40;100912.78;4841551;29;20121;-85
2023/05/10 10:33:39;;;;;;;28.10;18.38;;;;;;;16.92;68.93;100919.00;4841557;29;20469;-85
2023/05/10 10:36:05;;;;;;;25.88;17.02;;;;;;;17.55;65.41;100907.53;4825225;29;20030;-84
2023/05/10 10:38:46;;;;;;;29.23;18.42;;;;;;;17.29;68.15;100926.06;4810227;29;20446;-84
2023/05/10 10:41:43;;;;;;;28.63;18.15;;;;;;;16.64;69.47;100920.53;4844289;29;20042;-84
2023/05/10 10:44:31;;;;;;;28.73;17.90;;;;;;;16.03;71.47;100919.88;4816664;29;20048;-83
2023/05/10 10:47:05;;;;;;;30.48;17.27;;;;;;;15.43;74.55;100921.47;4839567;29;20642;-84
2023/05/10 10:49:33;;;;;;;28.65;17.38;;;;;;;15.06;75.51;100929.59;4838767;29;20427;-84
2023/05/10 10:52:23;;;;;;;28.45;16.83;;;;;;;14.99;76.89;100926.97;4844067;29;20064;-84
2023/05/10 10:55:22;;;;;;;30.48;17.48;;;;;;;14.43;78.04;100928.72;4834564;29;20485;-84
2023/05/10 10:58:00;;;;;;;32.35;17.48;;;;;;;14.50;79.71;100932.19;4842778;29;20497;-83
2023/05/10 11:00:31;;;;;;;30.25;16.88;;;;;;;14.49;78.80;100927.81;4833772;29;20070;-85
2023/05/10 11:03:07;;;;;;;28.67;17.55;;;;;;;14.84;77.08;100936.28;4841971;29;20070;-83
2023/05/10 11:05:44;;;;;;;29.80;16.33;;;;;;;14.85;76.75;100932.53;4826791;29;20041;-84
2023/05/10 11:08:21;;;;;;;34.72;17.52;;;;;;;15.21;76.82;100940.91;4839270;29;20052;-84
2023/05/10 11:11:06;;;;;;;26.60;15.98;;;;;;;15.45;74.09;100935.63;4843869;29;20493;-84
2023/05/10 11:13:40;;;;;;;28.50;15.38;;;;;;;15.69;71.70;100935.75;4845183;29;20026;-83